PWSweather.com
Personal Weather Stations
Station Observations
J24K28P63
Vysocina, PocatkyCZ 39464

VysocinaPocatkyCZ 39464

Lat: 49.2594238, Lon: 15.2331769

Elevation: 2011

Station Type: Vantage Pro2+

http://meteo-jirkalina.com

Latest ConditionsUpdated 4:30:13 PM GMT+01:01 Sunday, Sep 22, 2019
Currently Today's Max Today's Min Today's Average
Temperature 60.4°F15.8°C 72.3°F22.4°C 42.2°F5.7°C 56.5°F13.6°C
Dew Point 30.4°F-0.9°C 47.9°F8.8°C 28.6°F-1.9°C 42.5°F5.8°C
Winds 5.1 mph SE8.2 kmh SE 10.6 mph -17.1 kmh - - 3.8 mph 6.1 kmh
Wind Gusts 12.0 mph19.3 kmh 18.0 mph29.0 kmh - -
Humidity 32% 94% 27% 64%
Pressure 29.88 in1011.9 mb 30.12 in1020.0 mb 29.88 in1011.9 mb -
Hour Temp Dew Point Humidity Winds Wind Gusts Pressure Precip Precip Rate Daily Precip Total
04:30 PM 60.4°F15.8°C 30.4°F-0.9°C 32% 5.1 mph SE8.2 kmh SE 12.0 mph19.3 kmh 29.88 in1011.9 mb - 0.00 in0.0 mm 0.00 in0.0 mm
04:20 PM 69.4°F20.8°C 45.3°F7.4°C 42% 1.0 mph ENE1.6 kmh ENE 2.0 mph3.2 kmh 29.91 in1012.9 mb - 0.00 in0.0 mm 0.00 in0.0 mm
04:10 PM 70.0°F21.1°C 45.9°F7.7°C 42% 5.0 mph E8.0 kmh E 7.0 mph11.3 kmh 29.90 in1012.5 mb - 0.00 in0.0 mm 0.00 in0.0 mm
04:00 PM 70.4°F21.3°C 46.2°F7.9°C 42% 5.0 mph SE8.0 kmh SE 7.0 mph11.3 kmh 29.90 in1012.5 mb - 0.00 in0.0 mm 0.00 in0.0 mm
03:50 PM 70.9°F21.6°C 46.0°F7.8°C 41% 3.0 mph ESE4.8 kmh ESE 8.0 mph12.9 kmh 29.90 in1012.5 mb - 0.00 in0.0 mm 0.00 in0.0 mm
03:40 PM 71.0°F21.7°C 46.1°F7.8°C 41% 3.0 mph E4.8 kmh E 7.0 mph11.3 kmh 29.90 in1012.5 mb - 0.00 in0.0 mm 0.00 in0.0 mm
03:30 PM 62.1°F16.7°C 28.6°F-1.9°C 28% 6.8 mph E10.9 kmh E 10.0 mph16.1 kmh 29.88 in1011.9 mb - 0.00 in0.0 mm 0.00 in0.0 mm
03:20 PM 71.1°F21.7°C 46.8°F8.2°C 42% 8.0 mph E12.9 kmh E 13.0 mph20.9 kmh 29.90 in1012.5 mb - 0.00 in0.0 mm 0.00 in0.0 mm
03:10 PM 71.4°F21.9°C 45.8°F7.7°C 40% 6.0 mph ESE9.7 kmh ESE 9.0 mph14.5 kmh 29.90 in1012.5 mb - 0.00 in0.0 mm 0.00 in0.0 mm
03:00 PM 71.7°F22.1°C 46.7°F8.2°C 41% 5.0 mph SE8.0 kmh SE 12.0 mph19.3 kmh 29.91 in1012.9 mb - 0.00 in0.0 mm 0.00 in0.0 mm
02:50 PM 71.3°F21.8°C 46.4°F8.0°C 41% 6.0 mph E9.7 kmh E 7.0 mph11.3 kmh 29.91 in1012.9 mb - 0.00 in0.0 mm 0.00 in0.0 mm
02:40 PM 71.6°F22.0°C 46.6°F8.1°C 41% 6.0 mph E9.7 kmh E 12.0 mph19.3 kmh 29.91 in1012.9 mb - 0.00 in0.0 mm 0.00 in0.0 mm
02:30 PM 63.7°F17.6°C 29.1°F-1.6°C 27% 7.9 mph SE12.7 kmh SE 12.0 mph19.3 kmh 29.89 in1012.2 mb - 0.00 in0.0 mm 0.00 in0.0 mm
02:20 PM 71.6°F22.0°C 46.0°F7.8°C 40% 7.0 mph E11.3 kmh E 12.0 mph19.3 kmh 29.91 in1012.9 mb - 0.00 in0.0 mm 0.00 in0.0 mm
02:10 PM 71.8°F22.1°C 46.2°F7.9°C 40% 6.0 mph E9.7 kmh E 10.0 mph16.1 kmh 29.91 in1012.9 mb - 0.00 in0.0 mm 0.00 in0.0 mm
02:00 PM 71.9°F22.2°C 45.6°F7.6°C 39% 3.0 mph E4.8 kmh E 8.0 mph12.9 kmh 29.92 in1013.2 mb - 0.00 in0.0 mm 0.00 in0.0 mm
01:50 PM 72.3°F22.4°C 45.3°F7.4°C 38% 8.0 mph ESE12.9 kmh ESE 13.0 mph20.9 kmh 29.92 in1013.2 mb - 0.00 in0.0 mm 0.00 in0.0 mm
01:40 PM 71.9°F22.2°C 45.6°F7.6°C 39% 6.0 mph ENE9.7 kmh ENE 10.0 mph16.1 kmh 29.92 in1013.2 mb - 0.00 in0.0 mm 0.00 in0.0 mm
01:30 PM 63.2°F17.3°C 29.5°F-1.4°C 28% 9.6 mph E15.4 kmh E 15.0 mph24.1 kmh 29.91 in1012.9 mb - 0.00 in0.0 mm 0.00 in0.0 mm
01:20 PM 70.8°F21.6°C 46.6°F8.1°C 42% 9.0 mph E14.5 kmh E 12.0 mph19.3 kmh 29.94 in1013.9 mb - 0.00 in0.0 mm 0.00 in0.0 mm
01:10 PM 71.0°F21.7°C 46.1°F7.8°C 41% 9.0 mph NE14.5 kmh NE 13.0 mph20.9 kmh 29.94 in1013.9 mb - 0.00 in0.0 mm 0.00 in0.0 mm
01:00 PM 70.1°F21.2°C 45.3°F7.4°C 41% 5.0 mph E8.0 kmh E 12.0 mph19.3 kmh 29.94 in1013.9 mb - 0.00 in0.0 mm 0.00 in0.0 mm
12:50 PM 69.8°F21.0°C 45.1°F7.3°C 41% 5.0 mph ESE8.0 kmh ESE 14.0 mph22.5 kmh 29.94 in1013.9 mb - 0.00 in0.0 mm 0.00 in0.0 mm
12:40 PM 69.6°F20.9°C 47.9°F8.8°C 46% 5.0 mph E8.0 kmh E 7.0 mph11.3 kmh 29.95 in1014.2 mb - 0.00 in0.0 mm 0.00 in0.0 mm
12:30 PM 69.0°F20.6°C 46.2°F7.9°C 44% 7.0 mph NE11.3 kmh NE 10.0 mph16.1 kmh 29.95 in1014.2 mb - 0.00 in0.0 mm 0.00 in0.0 mm
12:20 PM 69.0°F20.6°C 46.2°F7.9°C 44% 7.0 mph NE11.3 kmh NE 10.0 mph16.1 kmh 29.96 in1014.6 mb - 0.00 in0.0 mm 0.00 in0.0 mm
12:10 PM 69.3°F20.7°C 47.6°F8.7°C 46% 3.0 mph ESE4.8 kmh ESE 14.0 mph22.5 kmh 29.96 in1014.6 mb - 0.00 in0.0 mm 0.00 in0.0 mm
12:00 PM 68.2°F20.1°C 47.2°F8.4°C 47% 5.0 mph E8.0 kmh E 9.0 mph14.5 kmh 29.97 in1014.9 mb - 0.00 in0.0 mm 0.00 in0.0 mm
11:50 AM 67.0°F19.4°C 46.1°F7.8°C 47% 6.0 mph E9.7 kmh E 10.0 mph16.1 kmh 29.98 in1015.2 mb - 0.00 in0.0 mm 0.00 in0.0 mm
11:40 AM 67.0°F19.4°C 46.1°F7.8°C 47% 6.0 mph NE9.7 kmh NE 9.0 mph14.5 kmh 29.98 in1015.2 mb - 0.00 in0.0 mm 0.00 in0.0 mm
11:30 AM 60.2°F15.7°C 30.2°F-1.0°C 32% 10.6 mph SE17.1 kmh SE 14.0 mph22.5 kmh 29.94 in1013.9 mb - 0.00 in0.0 mm 0.00 in0.0 mm
11:20 AM 66.0°F18.9°C 46.3°F7.9°C 49% 8.0 mph NE12.9 kmh NE 13.0 mph20.9 kmh 29.99 in1015.6 mb - 0.00 in0.0 mm 0.00 in0.0 mm
11:10 AM 65.5°F18.6°C 46.4°F8.0°C 50% 6.0 mph E9.7 kmh E 6.0 mph9.7 kmh 30.00 in1015.9 mb - 0.00 in0.0 mm 0.00 in0.0 mm
11:00 AM 64.8°F18.2°C 45.7°F7.6°C 50% 7.0 mph ENE11.3 kmh ENE 10.0 mph16.1 kmh 30.00 in1015.9 mb - 0.00 in0.0 mm 0.00 in0.0 mm
10:50 AM 64.8°F18.2°C 44.6°F7.0°C 48% 5.0 mph ESE8.0 kmh ESE 10.0 mph16.1 kmh 30.01 in1016.3 mb - 0.00 in0.0 mm 0.00 in0.0 mm
10:40 AM 64.8°F18.2°C 46.3°F7.9°C 51% 3.0 mph E4.8 kmh E 7.0 mph11.3 kmh 30.01 in1016.3 mb - 0.00 in0.0 mm 0.00 in0.0 mm
10:30 AM 58.5°F14.7°C 30.9°F-0.6°C 35% 7.7 mph SE12.4 kmh SE 18.0 mph29.0 kmh 29.95 in1014.2 mb - 0.00 in0.0 mm 0.00 in0.0 mm
10:20 AM 63.2°F17.3°C 45.3°F7.4°C 52% 5.0 mph E8.0 kmh E 7.0 mph11.3 kmh 30.02 in1016.6 mb - 0.00 in0.0 mm 0.00 in0.0 mm
10:10 AM 62.4°F16.9°C 45.0°F7.2°C 53% 5.0 mph ESE8.0 kmh ESE 9.0 mph14.5 kmh 30.02 in1016.6 mb - 0.00 in0.0 mm 0.00 in0.0 mm
10:00 AM 61.3°F16.3°C 45.9°F7.7°C 57% 8.0 mph E12.9 kmh E 12.0 mph19.3 kmh 30.03 in1016.9 mb - 0.00 in0.0 mm 0.00 in0.0 mm
09:50 AM 60.5°F15.8°C 45.2°F7.3°C 57% 9.0 mph ENE14.5 kmh ENE 12.0 mph19.3 kmh 30.03 in1016.9 mb - 0.00 in0.0 mm 0.00 in0.0 mm
09:40 AM 59.7°F15.4°C 44.9°F7.2°C 58% 7.0 mph NE11.3 kmh NE 12.0 mph19.3 kmh 30.03 in1016.9 mb - 0.00 in0.0 mm 0.00 in0.0 mm
09:30 AM 59.4°F15.2°C 45.0°F7.2°C 59% 7.0 mph NE11.3 kmh NE 12.0 mph19.3 kmh 30.04 in1017.3 mb - 0.00 in0.0 mm 0.00 in0.0 mm
09:20 AM 58.8°F14.9°C 45.8°F7.7°C 62% 6.0 mph E9.7 kmh E 10.0 mph16.1 kmh 30.04 in1017.3 mb - 0.00 in0.0 mm 0.00 in0.0 mm
09:10 AM 58.4°F14.7°C 45.8°F7.7°C 63% 7.0 mph E11.3 kmh E 10.0 mph16.1 kmh 30.04 in1017.3 mb - 0.00 in0.0 mm 0.00 in0.0 mm
09:00 AM 57.9°F14.4°C 45.8°F7.7°C 64% 7.0 mph E11.3 kmh E 12.0 mph19.3 kmh 30.05 in1017.6 mb - 0.00 in0.0 mm 0.00 in0.0 mm
08:50 AM 57.4°F14.1°C 46.9°F8.3°C 68% 5.0 mph ENE8.0 kmh ENE 8.0 mph12.9 kmh 30.05 in1017.6 mb - 0.00 in0.0 mm 0.00 in0.0 mm
08:40 AM 55.9°F13.3°C 46.3°F7.9°C 70% 3.0 mph E4.8 kmh E 3.0 mph4.8 kmh 30.05 in1017.6 mb - 0.00 in0.0 mm 0.00 in0.0 mm
08:30 AM 54.5°F12.5°C 46.1°F7.8°C 73% 3.0 mph E4.8 kmh E 5.0 mph8.0 kmh 30.06 in1017.9 mb - 0.00 in0.0 mm 0.00 in0.0 mm
08:20 AM 53.7°F12.1°C 45.6°F7.6°C 74% 5.0 mph E8.0 kmh E 7.0 mph11.3 kmh 30.05 in1017.6 mb - 0.00 in0.0 mm 0.00 in0.0 mm
08:10 AM 53.5°F11.9°C 45.4°F7.4°C 74% 3.0 mph E4.8 kmh E 5.0 mph8.0 kmh 30.06 in1017.9 mb - 0.00 in0.0 mm 0.00 in0.0 mm
08:00 AM 52.9°F11.6°C 45.2°F7.3°C 75% 3.0 mph E4.8 kmh E 3.0 mph4.8 kmh 30.06 in1017.9 mb - 0.00 in0.0 mm 0.00 in0.0 mm
07:50 AM 52.1°F11.2°C 44.8°F7.1°C 76% 5.0 mph E8.0 kmh E 5.0 mph8.0 kmh 30.06 in1017.9 mb - 0.00 in0.0 mm 0.00 in0.0 mm
07:40 AM 52.4°F11.3°C 45.1°F7.3°C 76% 1.0 mph E1.6 kmh E 2.0 mph3.2 kmh 30.06 in1017.9 mb - 0.00 in0.0 mm 0.00 in0.0 mm
07:30 AM 53.1°F11.7°C 30.6°F-0.8°C 42% 6.0 mph E9.7 kmh E 13.0 mph20.9 kmh 29.96 in1014.6 mb - 0.00 in0.0 mm 0.00 in0.0 mm
07:20 AM 52.0°F11.1°C 45.3°F7.4°C 78% 1.0 mph E1.6 kmh E 3.0 mph4.8 kmh 30.06 in1017.9 mb - 0.00 in0.0 mm 0.00 in0.0 mm
07:10 AM 50.7°F10.4°C 45.7°F7.6°C 83% 1.0 mph E1.6 kmh E 2.0 mph3.2 kmh 30.06 in1017.9 mb - 0.00 in0.0 mm 0.00 in0.0 mm
07:00 AM 47.6°F8.7°C 44.9°F7.2°C 90% Calm Calm 2.0 mph3.2 kmh 30.06 in1017.9 mb - 0.00 in0.0 mm 0.00 in0.0 mm
06:50 AM 45.5°F7.5°C 43.6°F6.4°C 93% Calm Calm -- 30.06 in1017.9 mb - 0.00 in0.0 mm 0.00 in0.0 mm
06:40 AM 44.3°F6.8°C 42.4°F5.8°C 93% Calm Calm -- 30.06 in1017.9 mb - 0.00 in0.0 mm 0.00 in0.0 mm
06:30 AM 43.4°F6.3°C 41.7°F5.4°C 94% 1.0 mph E1.6 kmh E 1.0 mph1.6 kmh 30.06 in1017.9 mb - 0.00 in0.0 mm 0.00 in0.0 mm
06:20 AM 42.8°F6.0°C 41.2°F5.1°C 94% Calm Calm 2.0 mph3.2 kmh 30.06 in1017.9 mb - 0.00 in0.0 mm 0.00 in0.0 mm
06:10 AM 42.6°F5.9°C 41.0°F5.0°C 94% Calm Calm -- 30.06 in1017.9 mb - 0.00 in0.0 mm 0.00 in0.0 mm
06:00 AM 42.5°F5.8°C 40.6°F4.8°C 93% Calm Calm 2.0 mph3.2 kmh 30.07 in1018.3 mb - 0.00 in0.0 mm 0.00 in0.0 mm
05:50 AM 42.3°F5.7°C 40.4°F4.7°C 93% Calm Calm 1.0 mph1.6 kmh 30.07 in1018.3 mb - 0.00 in0.0 mm 0.00 in0.0 mm
05:40 AM 42.2°F5.7°C 40.3°F4.6°C 93% Calm Calm -- 30.06 in1017.9 mb - 0.00 in0.0 mm 0.00 in0.0 mm
05:30 AM 49.4°F9.7°C 30.0°F-1.1°C 47% 6.9 mph SE11.1 kmh SE 10.0 mph16.1 kmh 29.98 in1015.2 mb - 0.00 in0.0 mm 0.00 in0.0 mm
05:20 AM 43.2°F6.2°C 40.7°F4.8°C 91% Calm Calm -- 30.07 in1018.3 mb - 0.00 in0.0 mm 0.00 in0.0 mm
05:10 AM 43.4°F6.3°C 40.7°F4.8°C 90% Calm Calm 1.0 mph1.6 kmh 30.07 in1018.3 mb - 0.00 in0.0 mm 0.00 in0.0 mm
05:00 AM 44.0°F6.7°C 41.2°F5.1°C 90% Calm Calm -- 30.07 in1018.3 mb - 0.00 in0.0 mm 0.00 in0.0 mm
04:50 AM 44.7°F7.1°C 41.9°F5.5°C 90% Calm Calm 1.0 mph1.6 kmh 30.07 in1018.3 mb - 0.00 in0.0 mm 0.00 in0.0 mm
04:40 AM 45.0°F7.2°C 41.9°F5.5°C 89% 2.0 mph E3.2 kmh E 3.0 mph4.8 kmh 30.07 in1018.3 mb - 0.00 in0.0 mm 0.00 in0.0 mm
04:30 AM 49.8°F9.9°C 30.9°F-0.6°C 48% 5.1 mph ENE8.2 kmh ENE 12.0 mph19.3 kmh 29.99 in1015.6 mb - 0.00 in0.0 mm 0.00 in0.0 mm
04:20 AM 45.5°F7.5°C 42.2°F5.7°C 88% 1.0 mph E1.6 kmh E 3.0 mph4.8 kmh 30.07 in1018.3 mb - 0.00 in0.0 mm 0.00 in0.0 mm
04:10 AM 45.9°F7.7°C 42.5°F5.8°C 88% 1.0 mph E1.6 kmh E 3.0 mph4.8 kmh 30.07 in1018.3 mb - 0.00 in0.0 mm 0.00 in0.0 mm
04:00 AM 46.1°F7.8°C 42.8°F6.0°C 88% 1.0 mph E1.6 kmh E 5.0 mph8.0 kmh 30.07 in1018.3 mb - 0.00 in0.0 mm 0.00 in0.0 mm
03:50 AM 46.1°F7.8°C 42.7°F5.9°C 88% 1.0 mph E1.6 kmh E 3.0 mph4.8 kmh 30.08 in1018.6 mb - 0.00 in0.0 mm 0.00 in0.0 mm
03:40 AM 46.2°F7.9°C 42.8°F6.0°C 88% 2.0 mph E3.2 kmh E 3.0 mph4.8 kmh 30.07 in1018.3 mb - 0.00 in0.0 mm 0.00 in0.0 mm
03:30 AM 51.2°F10.7°C 30.0°F-1.1°C 44% 7.3 mph ESE11.7 kmh ESE 10.0 mph16.1 kmh 30.00 in1015.9 mb - 0.00 in0.0 mm 0.00 in0.0 mm
03:20 AM 46.1°F7.8°C 42.7°F5.9°C 88% 1.0 mph E1.6 kmh E 2.0 mph3.2 kmh 30.09 in1019.0 mb - 0.00 in0.0 mm 0.00 in0.0 mm
03:10 AM 46.1°F7.8°C 42.7°F5.9°C 88% 1.0 mph E1.6 kmh E 2.0 mph3.2 kmh 30.09 in1019.0 mb - 0.00 in0.0 mm 0.00 in0.0 mm
03:00 AM 46.1°F7.8°C 42.7°F5.9°C 88% 1.0 mph E1.6 kmh E 2.0 mph3.2 kmh 30.09 in1019.0 mb - 0.00 in0.0 mm 0.00 in0.0 mm
02:50 AM 45.9°F7.7°C 42.8°F6.0°C 89% 1.0 mph E1.6 kmh E 2.0 mph3.2 kmh 30.09 in1019.0 mb - 0.00 in0.0 mm 0.00 in0.0 mm
02:40 AM 45.9°F7.7°C 43.1°F6.2°C 90% Calm Calm 1.0 mph1.6 kmh 30.09 in1019.0 mb - 0.00 in0.0 mm 0.00 in0.0 mm
02:30 AM 52.4°F11.3°C 30.5°F-0.8°C 43% 8.7 mph ESE14.0 kmh ESE 13.0 mph20.9 kmh 30.02 in1016.6 mb - 0.00 in0.0 mm 0.00 in0.0 mm
02:20 AM 44.7°F7.1°C 41.9°F5.5°C 90% Calm Calm -- 30.10 in1019.3 mb - 0.00 in0.0 mm 0.00 in0.0 mm
02:10 AM 44.9°F7.2°C 41.9°F5.5°C 89% Calm Calm -- 30.10 in1019.3 mb - 0.00 in0.0 mm 0.00 in0.0 mm
02:00 AM 45.4°F7.4°C 42.4°F5.8°C 89% Calm Calm -- 30.10 in1019.3 mb - 0.00 in0.0 mm 0.00 in0.0 mm
01:50 AM 45.9°F7.7°C 42.3°F5.7°C 87% Calm Calm -- 30.10 in1019.3 mb - 0.00 in0.0 mm 0.00 in0.0 mm
01:40 AM 46.5°F8.1°C 43.2°F6.2°C 88% Calm Calm 2.0 mph3.2 kmh 30.10 in1019.3 mb - 0.00 in0.0 mm 0.00 in0.0 mm
01:30 AM 52.6°F11.4°C 30.1°F-1.1°C 42% 7.1 mph ESE11.4 kmh ESE 12.0 mph19.3 kmh 30.04 in1017.3 mb - 0.00 in0.0 mm 0.00 in0.0 mm
01:20 AM 46.0°F7.8°C 42.9°F6.1°C 89% Calm Calm 1.0 mph1.6 kmh 30.11 in1019.6 mb - 0.00 in0.0 mm 0.00 in0.0 mm
01:10 AM 45.9°F7.7°C 42.8°F6.0°C 89% Calm Calm -- 30.11 in1019.6 mb - 0.00 in0.0 mm 0.00 in0.0 mm
01:00 AM 46.1°F7.8°C 42.7°F5.9°C 88% Calm Calm -- 30.11 in1019.6 mb - 0.00 in0.0 mm 0.00 in0.0 mm
12:50 AM 46.4°F8.0°C 43.0°F6.1°C 88% Calm Calm 1.0 mph1.6 kmh 30.12 in1020.0 mb - 0.00 in0.0 mm 0.00 in0.0 mm
12:30 AM 51.7°F10.9°C 31.0°F-0.6°C 45% 9.0 mph ESE14.5 kmh ESE 14.0 mph22.5 kmh 30.06 in1017.9 mb - 0.00 in0.0 mm 0.00 in0.0 mm
12:10 AM 47.6°F8.7°C 43.9°F6.6°C 87% Calm Calm 1.0 mph1.6 kmh 30.12 in1020.0 mb - 0.00 in0.0 mm 0.00 in0.0 mm
12:00 AM 47.7°F8.7°C 44.0°F6.7°C 87% Calm Calm -- 30.12 in1020.0 mb - 0.00 in0.0 mm 0.00 in0.0 mm